createdAt,value
2017-10-30T00:00:05.347Z,6.00
2017-10-30T00:02:33.306Z,6.00
2017-10-30T00:05:02.293Z,5.90
2017-10-30T00:07:30.183Z,5.90
2017-10-30T00:09:58.000Z,5.80
2017-10-30T00:12:26.280Z,5.70
2017-10-30T00:14:54.184Z,5.70
2017-10-30T00:17:22.260Z,5.60
2017-10-30T00:19:50.024Z,5.60
2017-10-30T00:22:18.691Z,5.70
2017-10-30T00:24:46.470Z,5.70
2017-10-30T00:27:14.442Z,5.70
2017-10-30T00:29:42.307Z,5.70
2017-10-30T00:32:10.343Z,5.70
2017-10-30T00:34:38.435Z,5.70
2017-10-30T00:37:06.299Z,5.70
2017-10-30T00:39:34.094Z,5.70
2017-10-30T00:42:02.031Z,5.80
2017-10-30T00:44:29.898Z,5.70
2017-10-30T00:46:57.966Z,5.70
2017-10-30T00:49:26.158Z,5.70
2017-10-30T00:51:54.028Z,5.80
2017-10-30T00:54:22.285Z,5.80
2017-10-30T00:56:50.288Z,5.80
2017-10-30T00:59:18.223Z,5.70
2017-10-30T01:01:46.191Z,5.70
2017-10-30T01:04:14.090Z,5.70
2017-10-30T01:06:41.952Z,5.70
2017-10-30T01:09:09.831Z,5.70
2017-10-30T01:11:37.657Z,5.70
2017-10-30T01:14:05.479Z,5.70
2017-10-30T01:16:35.059Z,5.70
2017-10-30T01:19:02.870Z,5.70
2017-10-30T01:21:30.783Z,5.70
2017-10-30T01:23:58.673Z,5.80
2017-10-30T01:26:27.415Z,5.90
2017-10-30T01:28:55.793Z,5.90
2017-10-30T01:31:24.495Z,5.90
2017-10-30T01:33:52.364Z,5.90
2017-10-30T01:36:20.413Z,5.90
2017-10-30T01:38:48.282Z,5.90
2017-10-30T01:41:16.186Z,5.80
2017-10-30T01:43:44.861Z,5.70
2017-10-30T01:46:12.828Z,5.70
2017-10-30T01:48:41.362Z,5.80
2017-10-30T01:51:09.253Z,5.80
2017-10-30T01:53:37.035Z,5.80
2017-10-30T01:56:05.218Z,5.80
2017-10-30T01:58:33.070Z,5.80
2017-10-30T02:01:00.917Z,5.80
2017-10-30T02:03:28.803Z,5.70
2017-10-30T02:05:56.672Z,5.70
2017-10-30T02:08:24.743Z,5.70
2017-10-30T02:10:52.759Z,5.90
2017-10-30T02:13:20.546Z,5.90
2017-10-30T02:15:48.449Z,5.80
2017-10-30T02:18:16.218Z,5.80
2017-10-30T02:20:44.258Z,5.80
2017-10-30T02:23:12.453Z,5.90
2017-10-30T02:25:40.328Z,5.90
2017-10-30T02:28:08.179Z,5.90
2017-10-30T02:30:36.273Z,5.90
2017-10-30T02:33:04.237Z,5.90
2017-10-30T02:35:32.586Z,5.80
2017-10-30T02:38:00.527Z,5.70
2017-10-30T02:40:29.193Z,5.70
2017-10-30T02:42:57.844Z,5.60
2017-10-30T02:45:26.066Z,5.60
2017-10-30T02:47:54.000Z,5.60
2017-10-30T02:50:21.908Z,5.50
2017-10-30T02:52:49.909Z,5.40
2017-10-30T02:55:17.790Z,5.50
2017-10-30T02:57:45.842Z,5.40
2017-10-30T03:00:14.123Z,5.20
2017-10-30T03:02:42.193Z,5.00
2017-10-30T03:05:10.262Z,4.80
2017-10-30T03:07:38.451Z,4.80
2017-10-30T03:10:06.507Z,4.70
2017-10-30T03:12:34.578Z,4.60
2017-10-30T03:15:02.771Z,4.50
2017-10-30T03:17:30.922Z,4.40
2017-10-30T03:19:59.324Z,4.30
2017-10-30T03:22:27.374Z,4.30
2017-10-30T03:24:55.360Z,4.40
2017-10-30T03:27:23.438Z,4.50
2017-10-30T03:29:51.312Z,4.60
2017-10-30T03:32:19.274Z,4.70
2017-10-30T03:34:47.145Z,4.70
2017-10-30T03:37:15.088Z,4.60
2017-10-30T03:39:42.984Z,4.50
2017-10-30T03:42:10.864Z,4.50
2017-10-30T03:44:40.320Z,4.40
2017-10-30T03:47:08.495Z,4.40
2017-10-30T03:49:36.322Z,4.50
2017-10-30T03:52:05.063Z,4.50
2017-10-30T03:54:33.747Z,4.50
2017-10-30T03:57:02.744Z,4.50
2017-10-30T03:59:30.607Z,4.50
2017-10-30T04:01:58.766Z,4.60
2017-10-30T04:04:26.840Z,4.50
2017-10-30T04:06:55.240Z,4.60
2017-10-30T04:09:23.176Z,4.50
2017-10-30T04:11:51.052Z,4.60
2017-10-30T04:14:19.247Z,4.60
2017-10-30T04:16:47.107Z,4.70
2017-10-30T04:19:15.082Z,4.70
2017-10-30T04:21:43.763Z,4.70
2017-10-30T04:24:11.611Z,4.80
2017-10-30T04:26:39.387Z,4.90
2017-10-30T04:29:07.153Z,4.80
2017-10-30T04:31:35.025Z,4.80
2017-10-30T04:34:04.039Z,4.80
2017-10-30T04:36:32.801Z,4.60
2017-10-30T04:39:02.391Z,4.60
2017-10-30T04:41:30.463Z,4.60
2017-10-30T04:43:58.315Z,4.40
2017-10-30T04:46:26.210Z,4.30
2017-10-30T04:48:54.275Z,4.30
2017-10-30T04:51:22.253Z,4.20
2017-10-30T04:53:50.190Z,4.20
2017-10-30T04:56:17.964Z,4.10
2017-10-30T04:58:46.364Z,4.00
2017-10-30T05:01:14.213Z,3.80
2017-10-30T05:03:42.098Z,3.60
2017-10-30T05:06:10.151Z,3.50
2017-10-30T05:08:37.931Z,3.40
2017-10-30T05:11:06.906Z,3.30
2017-10-30T05:13:34.713Z,3.20
2017-10-30T05:16:02.492Z,3.30
2017-10-30T05:18:31.139Z,3.20
2017-10-30T05:20:59.307Z,3.20
2017-10-30T05:23:27.260Z,3.30
2017-10-30T05:25:55.249Z,3.30
2017-10-30T05:28:24.736Z,3.20
2017-10-30T05:30:52.824Z,3.20
2017-10-30T05:33:20.707Z,3.30
2017-10-30T05:35:49.289Z,3.30
2017-10-30T05:38:17.147Z,3.30
2017-10-30T05:40:45.909Z,3.40
2017-10-30T05:43:14.010Z,3.40
2017-10-30T05:45:42.008Z,3.40
2017-10-30T05:48:10.763Z,3.60
2017-10-30T05:50:38.546Z,3.60
2017-10-30T05:53:07.208Z,3.70
2017-10-30T05:55:35.171Z,3.60
2017-10-30T05:58:03.023Z,3.70
2017-10-30T06:00:30.992Z,3.80
2017-10-30T06:02:59.193Z,3.80
2017-10-30T06:05:27.012Z,3.80
2017-10-30T06:07:54.926Z,3.90
2017-10-30T06:10:22.784Z,4.00
2017-10-30T06:12:50.649Z,4.10
2017-10-30T06:15:18.399Z,4.30
2017-10-30T06:17:46.380Z,4.40
2017-10-30T06:20:14.246Z,4.40
2017-10-30T06:22:42.013Z,4.50
2017-10-30T06:25:09.975Z,4.50
2017-10-30T06:27:37.864Z,4.50
2017-10-30T06:30:05.717Z,4.50
2017-10-30T06:32:33.581Z,4.50
2017-10-30T06:35:01.659Z,4.70
2017-10-30T06:37:29.600Z,4.70
2017-10-30T06:39:57.534Z,4.80
2017-10-30T06:42:25.361Z,4.80
2017-10-30T06:44:53.299Z,4.90
2017-10-30T06:47:21.271Z,4.90
2017-10-30T06:49:49.464Z,5.00
2017-10-30T06:52:17.413Z,5.00
2017-10-30T06:54:45.408Z,5.10
2017-10-30T06:57:13.522Z,5.10
2017-10-30T06:59:41.305Z,5.20
2017-10-30T07:02:30.178Z,5.20
2017-10-30T07:04:58.089Z,5.40
2017-10-30T07:07:26.832Z,5.50
2017-10-30T07:09:54.736Z,5.50
2017-10-30T07:12:22.666Z,5.60
2017-10-30T07:14:50.740Z,5.60
2017-10-30T07:17:18.913Z,5.60
2017-10-30T07:19:47.701Z,5.70
2017-10-30T07:22:15.878Z,5.70
2017-10-30T07:24:44.969Z,5.80
2017-10-30T07:27:13.755Z,5.90
2017-10-30T07:29:41.708Z,5.90
2017-10-30T07:32:09.627Z,6.00
2017-10-30T07:34:38.374Z,6.10
2017-10-30T07:37:06.451Z,6.10
2017-10-30T07:39:34.571Z,6.20
2017-10-30T07:42:03.312Z,6.40
2017-10-30T07:44:31.281Z,6.40
2017-10-30T07:46:59.181Z,6.50
2017-10-30T07:49:27.942Z,6.70
2017-10-30T07:51:56.522Z,6.70
2017-10-30T07:54:24.894Z,6.70
2017-10-30T07:56:52.965Z,6.60
2017-10-30T07:59:21.139Z,6.60
2017-10-30T08:01:49.115Z,6.70
2017-10-30T08:04:17.317Z,6.70
2017-10-30T08:06:46.102Z,6.80
2017-10-30T08:09:14.701Z,6.70
2017-10-30T08:11:43.476Z,6.80
2017-10-30T08:14:12.433Z,6.70
2017-10-30T08:16:40.401Z,6.70
2017-10-30T08:19:08.471Z,6.80
2017-10-30T08:21:36.547Z,6.90
2017-10-30T08:24:04.513Z,7.10
2017-10-30T08:26:32.585Z,7.00
2017-10-30T08:29:00.755Z,7.00
2017-10-30T08:31:29.034Z,6.90
2017-10-30T08:33:57.119Z,6.90
2017-10-30T08:36:25.281Z,6.90
2017-10-30T08:38:53.354Z,7.10
2017-10-30T08:41:21.522Z,7.00
2017-10-30T08:43:49.805Z,6.90
2017-10-30T08:46:17.871Z,6.80
2017-10-30T08:48:45.942Z,6.90
2017-10-30T08:51:14.014Z,6.90
2017-10-30T08:53:42.084Z,7.00
2017-10-30T08:56:10.171Z,7.10
2017-10-30T08:58:38.330Z,7.10
2017-10-30T09:01:06.402Z,7.10
2017-10-30T09:03:34.472Z,7.20
2017-10-30T09:06:02.553Z,7.20
2017-10-30T09:08:30.718Z,7.20
2017-10-30T09:10:58.789Z,7.10
2017-10-30T09:13:26.862Z,6.90
2017-10-30T09:15:54.933Z,6.80
2017-10-30T09:18:23.002Z,6.70
2017-10-30T09:20:51.091Z,6.70
2017-10-30T09:23:20.458Z,6.80
2017-10-30T09:25:48.565Z,6.80
2017-10-30T09:28:18.190Z,7.00
2017-10-30T09:30:47.047Z,7.20
2017-10-30T09:33:15.538Z,7.20
2017-10-30T09:35:43.804Z,7.40
2017-10-30T09:38:12.112Z,7.60
2017-10-30T09:40:40.291Z,7.80
2017-10-30T09:43:08.967Z,7.80
2017-10-30T09:45:36.839Z,7.80
2017-10-30T09:48:05.856Z,7.70
2017-10-30T09:50:33.868Z,7.70
2017-10-30T09:53:01.845Z,7.90
2017-10-30T09:55:29.844Z,8.30
2017-10-30T09:57:58.800Z,8.70
2017-10-30T10:00:26.871Z,8.70
2017-10-30T10:02:55.146Z,8.40
2017-10-30T10:05:23.421Z,8.50
2017-10-30T10:07:51.502Z,8.70
2017-10-30T10:10:19.682Z,8.60
2017-10-30T10:12:47.738Z,8.40
2017-10-30T10:15:16.433Z,8.50
2017-10-30T10:17:44.393Z,8.60
2017-10-30T10:20:12.466Z,8.70
2017-10-30T10:22:40.539Z,8.90
2017-10-30T10:25:08.708Z,8.80
2017-10-30T10:27:36.782Z,8.80
2017-10-30T10:30:04.851Z,8.90
2017-10-30T10:32:32.923Z,9.10
2017-10-30T10:35:00.994Z,8.50
2017-10-30T10:37:29.003Z,8.60
2017-10-30T10:39:57.958Z,8.40
2017-10-30T10:42:25.948Z,8.40
2017-10-30T10:44:53.995Z,8.30
2017-10-30T10:47:21.965Z,8.20
2017-10-30T10:49:50.140Z,8.20
2017-10-30T10:52:18.312Z,8.10
2017-10-30T10:54:46.215Z,8.10
2017-10-30T10:57:15.072Z,8.30
2017-10-30T10:59:43.040Z,8.30
2017-10-30T11:02:11.110Z,8.20
2017-10-30T11:04:39.080Z,8.10
2017-10-30T11:07:07.091Z,8.00
2017-10-30T11:09:36.041Z,7.70
2017-10-30T11:12:03.912Z,7.70
2017-10-30T11:14:31.983Z,7.70
2017-10-30T11:17:00.053Z,7.90
2017-10-30T11:19:28.368Z,8.00
2017-10-30T11:21:57.215Z,8.00
2017-10-30T11:24:25.184Z,8.00
2017-10-30T11:26:58.582Z,8.20
2017-10-30T11:29:26.462Z,8.30
2017-10-30T11:31:54.620Z,8.30
2017-10-30T11:34:22.507Z,8.30
2017-10-30T11:36:50.372Z,8.40
2017-10-30T11:39:18.342Z,8.50
2017-10-30T11:41:46.219Z,8.60
2017-10-30T11:44:14.076Z,8.80
2017-10-30T11:46:41.952Z,8.80
2017-10-30T11:49:09.941Z,8.80
2017-10-30T11:51:38.480Z,8.50
2017-10-30T11:54:06.369Z,8.50
2017-10-30T11:56:34.231Z,8.60
2017-10-30T11:59:02.088Z,8.60
2017-10-30T12:01:29.963Z,8.50
2017-10-30T12:03:57.911Z,8.40
2017-10-30T12:06:25.887Z,8.40
2017-10-30T12:08:53.849Z,8.50
2017-10-30T12:11:22.740Z,8.70
2017-10-30T12:13:50.809Z,8.70
2017-10-30T12:16:18.882Z,8.80
2017-10-30T12:18:46.966Z,8.80
2017-10-30T12:21:15.741Z,8.70
2017-10-30T12:23:43.711Z,8.70
2017-10-30T12:26:11.746Z,8.70
2017-10-30T12:28:39.854Z,8.80
2017-10-30T12:31:07.922Z,8.90
2017-10-30T12:33:35.933Z,8.90
2017-10-30T12:36:04.575Z,9.00
2017-10-30T12:38:32.458Z,9.00
2017-10-30T12:41:00.344Z,8.90
2017-10-30T12:43:29.022Z,9.20
2017-10-30T12:45:57.211Z,9.20
2017-10-30T12:48:25.874Z,9.30
2017-10-30T12:50:53.829Z,9.30
2017-10-30T12:53:21.903Z,9.30
2017-10-30T12:55:49.889Z,9.30
2017-10-30T12:58:18.201Z,9.30
2017-10-30T13:00:46.849Z,9.50
2017-10-30T13:03:14.822Z,9.50
2017-10-30T13:05:42.680Z,9.80
2017-10-30T13:08:10.547Z,9.90
2017-10-30T13:10:39.322Z,9.90
2017-10-30T13:13:07.207Z,9.80
2017-10-30T13:15:35.152Z,9.80
2017-10-30T13:18:03.249Z,9.80
2017-10-30T13:20:31.227Z,10.00
2017-10-30T13:22:59.085Z,10.10
2017-10-30T13:25:27.038Z,10.20
2017-10-30T13:27:54.920Z,10.30
2017-10-30T13:30:23.629Z,10.40
2017-10-30T13:32:52.383Z,10.30
2017-10-30T13:35:20.267Z,10.20
2017-10-30T13:37:48.238Z,10.50
2017-10-30T13:40:16.206Z,10.50
2017-10-30T13:42:44.363Z,10.50
2017-10-30T13:45:12.255Z,10.60
2017-10-30T13:47:40.849Z,10.70
2017-10-30T13:50:09.510Z,11.00
2017-10-30T13:52:37.457Z,11.00
2017-10-30T13:55:05.382Z,10.90
2017-10-30T13:57:33.311Z,10.70
2017-10-30T14:00:01.185Z,10.70
2017-10-30T14:02:28.969Z,10.60
2017-10-30T14:04:57.838Z,10.60
2017-10-30T14:07:25.895Z,10.60
2017-10-30T14:09:53.745Z,10.30
2017-10-30T14:12:21.837Z,10.60
2017-10-30T14:14:49.854Z,10.80
2017-10-30T14:17:17.684Z,10.80
2017-10-30T14:19:45.632Z,10.70
2017-10-30T14:22:13.625Z,10.80
2017-10-30T14:24:42.298Z,10.80
2017-10-30T14:27:10.244Z,10.80
2017-10-30T14:29:38.194Z,10.60
2017-10-30T14:32:06.093Z,10.60
2017-10-30T14:34:34.075Z,10.60
2017-10-30T14:37:02.019Z,10.80
2017-10-30T14:39:29.929Z,10.90
2017-10-30T14:41:58.584Z,10.60
2017-10-30T14:44:26.657Z,10.60
2017-10-30T14:46:54.689Z,10.40
2017-10-30T14:49:22.976Z,10.20
2017-10-30T14:51:50.972Z,9.90
2017-10-30T14:54:18.928Z,9.60
2017-10-30T14:56:48.565Z,9.20
2017-10-30T14:59:16.729Z,9.20
2017-10-30T15:01:44.650Z,9.10
2017-10-30T15:04:12.863Z,9.10
2017-10-30T15:06:40.847Z,8.90
2017-10-30T15:09:08.785Z,8.80
2017-10-30T15:11:36.558Z,8.70
2017-10-30T15:14:04.566Z,8.60
2017-10-30T15:16:33.215Z,8.60
2017-10-30T15:19:01.376Z,8.50
2017-10-30T15:21:29.480Z,8.60
2017-10-30T15:23:57.290Z,8.60
2017-10-30T15:26:25.102Z,8.50
2017-10-30T15:28:53.089Z,8.30
2017-10-30T15:31:20.892Z,8.30
2017-10-30T15:33:48.794Z,8.20
2017-10-30T15:36:16.783Z,8.20
2017-10-30T15:38:44.821Z,8.00
2017-10-30T15:41:12.994Z,8.00
2017-10-30T15:43:40.850Z,7.90
2017-10-30T15:46:08.756Z,7.70
2017-10-30T15:48:36.737Z,7.70
2017-10-30T15:51:04.537Z,7.50
2017-10-30T15:53:32.450Z,7.40
2017-10-30T15:56:00.397Z,7.30
2017-10-30T15:58:28.282Z,7.10
2017-10-30T16:00:56.337Z,7.00
2017-10-30T16:03:24.242Z,6.90
2017-10-30T16:05:53.092Z,7.00
2017-10-30T16:08:20.960Z,7.00
2017-10-30T16:10:48.838Z,6.90
2017-10-30T16:13:16.742Z,6.80
2017-10-30T16:15:45.493Z,6.70
2017-10-30T16:18:13.453Z,6.70
2017-10-30T16:20:41.259Z,6.70
2017-10-30T16:23:10.022Z,6.80
2017-10-30T16:25:37.995Z,6.80
2017-10-30T16:28:06.882Z,6.80
2017-10-30T16:30:35.095Z,6.80
2017-10-30T16:33:02.954Z,7.00
2017-10-30T16:35:31.612Z,7.10
2017-10-30T16:37:59.554Z,7.10
2017-10-30T16:40:27.753Z,7.10
2017-10-30T16:42:55.712Z,7.00
2017-10-30T16:45:37.107Z,6.90
2017-10-30T16:48:05.767Z,6.80
2017-10-30T16:50:33.940Z,6.80
2017-10-30T16:53:02.040Z,6.80
2017-10-30T16:55:30.111Z,6.70
2017-10-30T16:57:58.396Z,6.70
2017-10-30T17:00:26.351Z,6.70
2017-10-30T17:02:54.293Z,6.70
2017-10-30T17:05:22.150Z,6.60
2017-10-30T17:07:50.131Z,6.60
2017-10-30T17:10:18.020Z,6.60
2017-10-30T17:12:47.424Z,6.60
2017-10-30T17:15:15.398Z,6.60
2017-10-30T17:17:43.645Z,6.70
2017-10-30T17:20:11.529Z,6.70
2017-10-30T17:22:39.294Z,6.70
2017-10-30T17:25:07.245Z,6.60
2017-10-30T17:27:35.047Z,6.60
2017-10-30T17:30:02.895Z,6.60
2017-10-30T17:32:30.657Z,6.70
2017-10-30T17:35:00.434Z,6.80
2017-10-30T17:37:28.226Z,6.80
2017-10-30T17:39:56.085Z,6.70
2017-10-30T17:42:24.148Z,6.70
2017-10-30T17:44:52.019Z,6.60
2017-10-30T17:47:19.916Z,6.60
2017-10-30T17:49:47.820Z,6.60
2017-10-30T17:52:15.825Z,6.50
2017-10-30T17:54:43.802Z,6.50
2017-10-30T17:57:11.874Z,6.40
2017-10-30T17:59:41.100Z,6.30
2017-10-30T18:02:09.745Z,6.20
2017-10-30T18:04:37.630Z,6.20
2017-10-30T18:07:05.499Z,6.20
2017-10-30T18:09:33.370Z,6.30
2017-10-30T18:12:01.550Z,6.20
2017-10-30T18:14:30.254Z,6.20
2017-10-30T18:16:59.095Z,6.30
2017-10-30T18:19:27.131Z,6.20
2017-10-30T18:22:00.830Z,6.30
2017-10-30T18:24:28.847Z,6.30
2017-10-30T18:26:56.909Z,6.30
2017-10-30T18:29:24.882Z,6.30
2017-10-30T18:31:52.851Z,6.30
2017-10-30T18:34:20.876Z,6.30
2017-10-30T18:36:49.518Z,6.10
2017-10-30T18:39:18.227Z,6.10
2017-10-30T18:41:47.179Z,6.10
2017-10-30T18:44:15.464Z,6.00
2017-10-30T18:46:43.357Z,6.00
2017-10-30T18:49:11.162Z,5.90
2017-10-30T18:51:38.970Z,5.70
2017-10-30T18:54:06.919Z,5.70
2017-10-30T18:56:34.887Z,5.50
2017-10-30T18:59:02.774Z,5.40
2017-10-30T19:01:30.752Z,5.30
2017-10-30T19:03:58.935Z,5.20
2017-10-30T19:06:27.702Z,5.10
2017-10-30T19:08:55.656Z,5.00
2017-10-30T19:11:24.031Z,4.90
2017-10-30T19:13:51.925Z,4.70
2017-10-30T19:16:19.753Z,4.60
2017-10-30T19:18:47.590Z,4.50
2017-10-30T19:21:15.703Z,4.40
2017-10-30T19:23:43.931Z,4.30
2017-10-30T19:26:12.085Z,4.30
2017-10-30T19:28:40.829Z,4.20
2017-10-30T19:31:08.804Z,4.20
2017-10-30T19:33:36.672Z,4.20
2017-10-30T19:36:04.504Z,4.20
2017-10-30T19:38:32.550Z,4.10
2017-10-30T19:41:01.511Z,3.90
2017-10-30T19:43:29.471Z,3.90
2017-10-30T19:45:57.455Z,4.00
2017-10-30T19:48:25.935Z,4.10
2017-10-30T19:50:53.991Z,4.10
2017-10-30T19:53:22.239Z,4.00
2017-10-30T19:55:50.235Z,4.10
2017-10-30T19:58:18.129Z,4.00
2017-10-30T20:00:46.250Z,4.10
2017-10-30T20:03:14.252Z,4.10
2017-10-30T20:05:47.982Z,3.90
2017-10-30T20:08:21.703Z,3.80
2017-10-30T20:10:56.293Z,3.70
2017-10-30T20:13:24.686Z,3.70
2017-10-30T20:15:53.467Z,3.30
2017-10-30T20:18:21.423Z,3.30
2017-10-30T20:20:49.629Z,3.20
2017-10-30T20:23:18.284Z,2.90
2017-10-30T20:25:46.368Z,2.90
2017-10-30T20:28:14.242Z,3.10
2017-10-30T20:30:42.294Z,3.00
2017-10-30T20:33:10.285Z,2.90
2017-10-30T20:35:38.365Z,3.00
2017-10-30T20:38:07.016Z,3.00
2017-10-30T20:40:34.911Z,3.00
2017-10-30T20:43:03.755Z,3.20
2017-10-30T20:45:31.873Z,3.10
2017-10-30T20:48:00.718Z,3.00
2017-10-30T20:50:28.730Z,2.90
2017-10-30T20:52:57.474Z,2.70
2017-10-30T20:55:25.644Z,2.70
2017-10-30T20:57:53.756Z,2.70
2017-10-30T21:00:21.604Z,2.70
2017-10-30T21:02:49.457Z,3.10
2017-10-30T21:05:17.492Z,3.20
2017-10-30T21:07:45.267Z,3.40
2017-10-30T21:10:13.324Z,3.70
2017-10-30T21:12:42.148Z,3.80
2017-10-30T21:15:10.029Z,3.80
2017-10-30T21:17:37.903Z,3.80
2017-10-30T21:20:06.767Z,3.80
2017-10-30T21:22:34.646Z,3.80
2017-10-30T21:25:02.711Z,3.80
2017-10-30T21:27:30.774Z,3.70
2017-10-30T21:29:58.745Z,3.70
2017-10-30T21:32:26.611Z,3.60
2017-10-30T21:34:54.504Z,3.60
2017-10-30T21:37:22.558Z,3.40
2017-10-30T21:39:50.430Z,3.30
2017-10-30T21:42:18.592Z,3.20
2017-10-30T21:44:46.473Z,3.40
2017-10-30T21:47:14.387Z,3.50
2017-10-30T21:49:42.320Z,3.40
2017-10-30T21:52:10.262Z,3.30
2017-10-30T21:54:38.640Z,3.10
2017-10-30T21:57:07.426Z,3.10
2017-10-30T21:59:35.311Z,3.00
2017-10-30T22:02:06.490Z,2.90
2017-10-30T22:04:35.633Z,2.90
2017-10-30T22:07:03.703Z,2.90
2017-10-30T22:09:31.911Z,2.80
2017-10-30T22:12:00.709Z,2.60
2017-10-30T22:14:30.805Z,2.60
2017-10-30T22:16:58.852Z,2.50
2017-10-30T22:19:27.031Z,2.30
2017-10-30T22:21:55.203Z,2.30
2017-10-30T22:24:23.458Z,2.30
2017-10-30T22:26:51.451Z,2.30
2017-10-30T22:29:19.525Z,2.10
2017-10-30T22:31:47.364Z,2.00
2017-10-30T22:34:15.266Z,2.00
2017-10-30T22:36:43.135Z,2.00
2017-10-30T22:39:11.089Z,1.90
2017-10-30T22:41:38.885Z,1.80
2017-10-30T22:44:11.430Z,2.20
2017-10-30T22:46:39.268Z,2.20
2017-10-30T22:49:07.185Z,2.20
2017-10-30T22:51:36.060Z,2.10
2017-10-30T22:54:03.933Z,2.10
2017-10-30T22:56:31.911Z,2.10
2017-10-30T22:58:59.962Z,2.50
2017-10-30T23:01:29.159Z,2.60
2017-10-30T23:03:57.001Z,2.50
2017-10-30T23:06:25.000Z,2.10
2017-10-30T23:08:52.859Z,2.00
2017-10-30T23:11:20.593Z,1.90
2017-10-30T23:13:48.450Z,2.10
2017-10-30T23:16:16.266Z,2.10
2017-10-30T23:18:44.339Z,2.10
2017-10-30T23:21:12.291Z,1.90
2017-10-30T23:23:40.188Z,2.20
2017-10-30T23:26:07.956Z,2.50
2017-10-30T23:28:35.723Z,2.50
2017-10-30T23:31:03.551Z,2.60
2017-10-30T23:33:31.415Z,2.60
2017-10-30T23:35:59.201Z,2.50
2017-10-30T23:38:27.150Z,2.30
2017-10-30T23:40:55.449Z,2.20
2017-10-30T23:43:23.491Z,2.20
2017-10-30T23:45:51.462Z,2.00
2017-10-30T23:48:19.230Z,2.10
2017-10-30T23:50:47.114Z,2.10
2017-10-30T23:53:14.874Z,2.10
2017-10-30T23:55:42.776Z,2.10
2017-10-30T23:58:11.616Z,2.00
